Time;durP1;ratioP1;P1;durP2;ratioP2;P2;SDS_P1;SDS_P2;PMS_P1;PMS_P2;Temp;Humidity;BMP_temperature;BMP_pressure;BME280_temperature;BME280_humidity;BME280_pressure;Samples;Min_cycle;Max_cycle;Signal;HPM_P1;HPM_P2
2023/10/23 00:00:54;;;;;;;32.97;18.57;;;;;;;10.78;100.00;99706.22;4229649;28;20236;-68
2023/10/23 00:03:20;;;;;;;30.43;18.57;;;;;;;10.81;100.00;99705.03;4223454;28;20228;-71
2023/10/23 00:05:47;;;;;;;28.60;18.30;;;;;;;10.80;100.00;99711.47;4229643;28;20246;-66
2023/10/23 00:08:14;;;;;;;28.90;15.47;;;;;;;10.83;100.00;99713.84;4224717;28;21458;-69
2023/10/23 00:10:42;;;;;;;32.37;16.20;;;;;;;10.77;100.00;99717.22;4204127;28;20273;-68
2023/10/23 00:13:09;;;;;;;30.20;15.90;;;;;;;10.83;100.00;99713.84;4221881;28;20299;-70
2023/10/23 00:15:35;;;;;;;26.93;15.30;;;;;;;10.75;100.00;99705.72;4217326;28;20228;-69
2023/10/23 00:18:02;;;;;;;31.37;14.97;;;;;;;10.80;100.00;99718.75;4218610;28;20231;-67
2023/10/23 00:20:29;;;;;;;24.27;14.87;;;;;;;10.74;100.00;99718.41;4213032;28;20246;-69
2023/10/23 00:22:55;;;;;;;29.00;15.17;;;;;;;10.71;100.00;99734.97;4215437;28;20254;-68
2023/10/23 00:25:22;;;;;;;25.50;14.93;;;;;;;10.73;100.00;99732.09;4220619;28;20233;-68
2023/10/23 00:27:48;;;;;;;28.00;14.53;;;;;;;10.74;100.00;99736.50;4220809;28;20285;-66
2023/10/23 00:30:15;;;;;;;24.60;15.30;;;;;;;10.73;100.00;99735.66;4225563;28;20239;-67
2023/10/23 00:32:42;;;;;;;27.20;14.03;;;;;;;10.68;100.00;99740.72;4218078;28;20231;-68
2023/10/23 00:35:08;;;;;;;28.00;15.33;;;;;;;10.72;100.00;99736.66;4214982;28;20508;-67
2023/10/23 00:37:35;;;;;;;26.23;14.53;;;;;;;10.69;100.00;99742.41;4217120;28;20326;-69
2023/10/23 00:40:02;;;;;;;28.20;14.57;;;;;;;10.68;100.00;99748.84;4218408;28;20244;-70
2023/10/23 00:42:29;;;;;;;29.63;15.13;;;;;;;10.67;100.00;99739.03;4215703;28;20481;-70
2023/10/23 00:44:55;;;;;;;23.33;14.37;;;;;;;10.71;100.00;99748.50;4210561;28;22019;-70
2023/10/23 00:47:23;;;;;;;34.97;14.20;;;;;;;10.70;100.00;99745.97;4220872;28;21589;-67
2023/10/23 00:49:50;;;;;;;24.90;13.73;;;;;;;10.73;100.00;99757.31;4216133;28;21804;-70
2023/10/23 00:52:17;;;;;;;26.37;14.93;;;;;;;10.68;100.00;99756.09;4212938;28;22947;-68
2023/10/23 00:54:45;;;;;;;30.97;15.23;;;;;;;10.67;100.00;99754.41;4221392;28;20233;-68
2023/10/23 00:57:12;;;;;;;31.87;15.97;;;;;;;10.71;100.00;99758.50;4220479;28;20402;-71
2023/10/23 00:59:39;;;;;;;37.40;16.97;;;;;;;10.78;100.00;99759.53;4209993;28;20336;-68
2023/10/23 01:02:06;;;;;;;31.57;16.57;;;;;;;10.72;100.00;99766.44;4210138;28;20315;-70
2023/10/23 01:04:32;;;;;;;37.17;18.37;;;;;;;10.74;100.00;99763.56;4216826;28;21111;-69
2023/10/23 01:06:59;;;;;;;37.37;19.17;;;;;;;10.69;100.00;99761.34;4215237;28;20246;-70
2023/10/23 01:09:26;;;;;;;36.97;19.60;;;;;;;10.68;100.00;99766.94;4217416;28;20243;-68
2023/10/23 01:11:53;;;;;;;40.70;21.57;;;;;;;10.72;100.00;99777.28;4219229;28;20573;-68
2023/10/23 01:14:19;;;;;;;42.83;20.10;;;;;;;10.75;100.00;99776.97;4201171;28;20251;-68
2023/10/23 01:16:46;;;;;;;40.40;22.37;;;;;;;10.75;100.00;99785.09;4214867;28;20384;-69
2023/10/23 01:19:12;;;;;;;44.43;22.50;;;;;;;10.74;100.00;99782.50;4212581;28;21333;-68
2023/10/23 01:21:39;;;;;;;50.90;23.23;;;;;;;10.75;100.00;99784.22;4211804;28;20957;-68
2023/10/23 01:24:08;;;;;;;52.30;24.90;;;;;;;10.75;100.00;99797.75;4196096;28;20299;-69
2023/10/23 01:26:34;;;;;;;50.30;23.23;;;;;;;10.78;100.00;99795.56;4216351;28;20235;-67
2023/10/23 01:29:01;;;;;;;50.97;23.80;;;;;;;10.78;100.00;99798.28;4201405;28;23644;-69
2023/10/23 01:31:27;;;;;;;50.23;23.33;;;;;;;10.80;100.00;99806.22;4211496;28;20297;-70
2023/10/23 01:33:55;;;;;;;49.37;23.03;;;;;;;10.79;100.00;99807.25;4213887;28;20270;-69
2023/10/23 01:36:22;;;;;;;48.40;22.60;;;;;;;10.73;100.00;99795.22;4214650;28;20231;-70
2023/10/23 01:38:48;;;;;;;45.80;19.97;;;;;;;10.79;100.00;99809.97;4220365;28;20238;-69
2023/10/23 01:41:15;;;;;;;46.00;20.43;;;;;;;10.76;100.00;99804.88;4207800;28;20509;-69
2023/10/23 01:43:41;;;;;;;42.07;19.40;;;;;;;10.70;100.00;99809.06;4212858;28;20340;-69
2023/10/23 01:46:08;;;;;;;39.23;19.30;;;;;;;10.71;100.00;99808.06;4215412;28;20279;-68
2023/10/23 01:48:35;;;;;;;37.27;18.70;;;;;;;10.72;100.00;99812.47;4216666;28;20454;-67
2023/10/23 01:51:01;;;;;;;35.13;17.83;;;;;;;10.69;100.00;99804.66;4216274;28;20232;-70
2023/10/23 01:53:28;;;;;;;30.87;16.40;;;;;;;10.72;100.00;99807.06;4216643;28;20273;-71
2023/10/23 01:55:55;;;;;;;34.43;16.67;;;;;;;10.70;100.00;99817.19;4219381;28;20247;-67
2023/10/23 01:58:21;;;;;;;27.23;16.43;;;;;;;10.69;100.00;99822.78;4209862;28;20361;-68
2023/10/23 02:00:48;;;;;;;24.90;14.87;;;;;;;10.58;100.00;99827.47;4209083;28;20251;-67
2023/10/23 02:03:14;;;;;;;31.83;16.43;;;;;;;10.54;100.00;99819.81;4209914;28;20518;-70
2023/10/23 02:05:42;;;;;;;25.20;14.93;;;;;;;10.57;100.00;99830.34;4224172;28;20255;-68
2023/10/23 02:08:08;;;;;;;22.83;14.73;;;;;;;10.53;100.00;99821.69;4224309;28;20363;-68
2023/10/23 02:10:35;;;;;;;27.87;16.40;;;;;;;10.50;100.00;99826.59;4220384;28;20258;-68
2023/10/23 02:13:01;;;;;;;26.63;15.17;;;;;;;10.56;100.00;99836.75;4220394;28;20247;-67
2023/10/23 02:15:28;;;;;;;19.37;12.70;;;;;;;10.55;100.00;99843.19;4223226;28;20250;-69
2023/10/23 02:17:55;;;;;;;23.90;13.47;;;;;;;10.48;100.00;99836.72;4221011;28;26224;-69
2023/10/23 02:20:22;;;;;;;19.97;13.00;;;;;;;10.39;100.00;99839.38;4201243;28;21987;-67
2023/10/23 02:22:48;;;;;;;22.80;13.40;;;;;;;10.29;100.00;99834.06;4214455;28;21673;-68
2023/10/23 02:25:15;;;;;;;24.70;13.53;;;;;;;10.36;100.00;99828.00;4214429;28;23203;-69
2023/10/23 02:27:41;;;;;;;26.17;14.03;;;;;;;10.35;100.00;99837.97;4220657;28;20248;-70
2023/10/23 02:30:08;;;;;;;25.50;13.60;;;;;;;10.30;100.00;99841.16;4218255;28;22192;-69
2023/10/23 02:32:35;;;;;;;28.83;14.73;;;;;;;10.29;100.00;99831.34;4217398;28;20907;-67
2023/10/23 02:35:02;;;;;;;27.83;13.30;;;;;;;10.26;100.00;99839.81;4212303;28;20244;-67
2023/10/23 02:37:29;;;;;;;25.80;14.37;;;;;;;10.23;100.00;99841.97;4213744;28;20244;-69
2023/10/23 02:39:56;;;;;;;26.47;14.30;;;;;;;10.25;100.00;99848.06;4216024;28;21214;-67
2023/10/23 02:42:23;;;;;;;29.53;14.27;;;;;;;10.27;100.00;99849.59;4221955;28;23489;-68
2023/10/23 02:44:50;;;;;;;28.77;15.00;;;;;;;10.21;100.00;99846.69;4218357;28;21233;-69
2023/10/23 02:47:17;;;;;;;28.07;15.43;;;;;;;10.15;100.00;99850.88;4205053;28;20286;-68
2023/10/23 02:49:43;;;;;;;26.90;15.03;;;;;;;10.17;100.00;99861.53;4207762;28;25589;-70
2023/10/23 02:52:10;;;;;;;30.70;16.30;;;;;;;10.25;100.00;99853.47;4202026;28;20264;-68
2023/10/23 02:54:36;;;;;;;30.20;15.63;;;;;;;10.22;100.00;99862.75;4226860;28;20236;-68
2023/10/23 02:57:03;;;;;;;24.20;15.17;;;;;;;10.17;100.00;99858.81;4224919;28;20230;-67
2023/10/23 02:59:32;;;;;;;32.17;16.23;;;;;;;10.13;100.00;99864.56;4220954;28;20236;-69
2023/10/23 03:02:00;;;;;;;30.63;14.10;;;;;;;10.14;100.00;99868.97;4211339;28;20247;-68
2023/10/23 03:04:27;;;;;;;29.20;13.57;;;;;;;10.08;100.00;99863.34;4219505;28;20292;-70
2023/10/23 03:06:54;;;;;;;26.40;14.70;;;;;;;10.08;100.00;99868.75;4227539;28;20239;-68
2023/10/23 03:09:20;;;;;;;24.07;13.80;;;;;;;10.10;100.00;99873.00;4221365;28;20234;-67
2023/10/23 03:11:47;;;;;;;24.60;14.13;;;;;;;10.19;100.00;99865.78;4218300;28;20235;-67
2023/10/23 03:14:13;;;;;;;21.93;13.17;;;;;;;10.17;100.00;99865.09;4219461;28;20432;-68
2023/10/23 03:16:40;;;;;;;29.43;15.10;;;;;;;10.15;100.00;99870.69;4206968;28;20318;-68
2023/10/23 03:19:06;;;;;;;27.37;14.93;;;;;;;10.19;100.00;99875.75;4204132;28;20236;-67
2023/10/23 03:21:34;;;;;;;25.23;13.97;;;;;;;10.22;100.00;99873.56;4217145;28;20262;-68
2023/10/23 03:24:00;;;;;;;23.67;13.93;;;;;;;10.11;100.00;99868.44;4218330;28;20265;-67
2023/10/23 03:26:27;;;;;;;24.97;14.40;;;;;;;10.18;100.00;99874.91;4218317;28;20439;-67
2023/10/23 03:28:55;;;;;;;29.27;15.13;;;;;;;10.18;100.00;99879.47;4222037;28;20239;-70
2023/10/23 03:31:22;;;;;;;27.80;15.50;;;;;;;10.06;100.00;99868.91;4217327;28;20235;-67
2023/10/23 03:33:49;;;;;;;33.67;16.47;;;;;;;10.07;100.00;99875.16;4209528;28;20348;-69
2023/10/23 03:36:16;;;;;;;34.77;16.40;;;;;;;9.99;100.00;99871.41;4223339;28;20231;-69
2023/10/23 03:38:42;;;;;;;31.17;16.00;;;;;;;10.02;100.00;99872.94;4233184;28;20299;-70
2023/10/23 03:41:09;;;;;;;27.37;15.73;;;;;;;10.04;100.00;99876.34;4214429;28;20233;-66
2023/10/23 03:43:36;;;;;;;31.17;16.37;;;;;;;10.07;100.00;99877.88;4220165;28;20286;-68
2023/10/23 03:46:03;;;;;;;29.73;16.03;;;;;;;10.12;100.00;99872.84;4214938;28;20242;-68
2023/10/23 03:48:32;;;;;;;33.03;17.13;;;;;;;10.12;100.00;99879.09;4215375;28;20362;-68
2023/10/23 03:51:01;;;;;;;32.73;16.57;;;;;;;10.05;100.00;99874.47;4202871;28;20239;-68
2023/10/23 03:53:27;;;;;;;35.00;18.03;;;;;;;10.09;100.00;99887.50;4215439;28;21233;-71
2023/10/23 03:55:54;;;;;;;31.17;17.27;;;;;;;10.10;100.00;99886.50;4218077;28;20297;-67
2023/10/23 03:58:21;;;;;;;33.63;17.60;;;;;;;10.09;100.00;99882.09;4222330;28;20236;-70
2023/10/23 04:00:51;;;;;;;35.57;17.80;;;;;;;10.16;100.00;99882.34;4216375;28;20235;-70
2023/10/23 04:03:18;;;;;;;30.33;16.70;;;;;;;10.19;100.00;99897.38;4229682;28;20945;-68
2023/10/23 04:05:45;;;;;;;34.93;17.93;;;;;;;10.26;100.00;99891.19;4220089;28;20232;-68
2023/10/23 04:08:11;;;;;;;33.17;17.17;;;;;;;10.14;100.00;99885.19;4212639;28;21156;-69
2023/10/23 04:10:44;;;;;;;37.17;18.73;;;;;;;10.08;100.00;99882.28;4209729;28;20309;-68
2023/10/23 04:13:11;;;;;;;37.63;18.53;;;;;;;10.11;100.00;99881.97;4218458;28;20227;-68
2023/10/23 04:15:37;;;;;;;36.23;19.20;;;;;;;10.08;100.00;99887.69;4219245;28;20231;-71
2023/10/23 04:18:04;;;;;;;40.33;18.43;;;;;;;10.10;100.00;99881.09;4215728;28;20626;-67
2023/10/23 04:20:31;;;;;;;36.67;19.13;;;;;;;10.14;100.00;99884.34;4204247;28;20271;-67
2023/10/23 04:22:58;;;;;;;40.53;19.23;;;;;;;10.14;100.00;99882.50;4217967;28;20285;-68
2023/10/23 04:25:24;;;;;;;38.17;19.90;;;;;;;10.13;100.00;99882.63;4214028;28;20562;-68
2023/10/23 04:27:51;;;;;;;43.57;22.20;;;;;;;10.06;100.00;99878.88;4228755;28;20282;-68
2023/10/23 04:30:17;;;;;;;44.53;21.37;;;;;;;10.10;100.00;99878.41;4215018;28;21636;-69
2023/10/23 04:32:44;;;;;;;44.50;20.33;;;;;;;10.14;100.00;99878.94;4215597;28;20506;-69
2023/10/23 04:35:11;;;;;;;40.77;20.67;;;;;;;10.28;100.00;99880.22;4213221;28;22852;-70
2023/10/23 04:37:37;;;;;;;44.03;20.27;;;;;;;10.25;100.00;99875.97;4215018;28;21127;-69
2023/10/23 04:40:05;;;;;;;43.27;20.37;;;;;;;10.29;100.00;99882.75;4216597;28;21610;-68
2023/10/23 04:42:32;;;;;;;37.27;19.43;;;;;;;10.36;100.00;99901.03;4215383;28;20583;-67
2023/10/23 04:44:59;;;;;;;39.70;21.30;;;;;;;10.24;100.00;99886.94;4206308;28;20266;-70
2023/10/23 04:47:26;;;;;;;43.47;22.87;;;;;;;10.26;100.00;99890.34;4205768;28;20623;-68
2023/10/23 04:49:53;;;;;;;42.03;22.70;;;;;;;10.26;100.00;99890.34;4204122;28;20310;-67
2023/10/23 04:52:19;;;;;;;39.50;20.80;;;;;;;10.22;100.00;99894.38;4220627;28;20335;-70
2023/10/23 04:54:46;;;;;;;46.57;21.03;;;;;;;10.24;100.00;99898.63;4221130;28;20238;-66
2023/10/23 04:57:13;;;;;;;39.87;20.43;;;;;;;10.28;100.00;99901.84;4210050;28;20248;-66
2023/10/23 04:59:39;;;;;;;41.53;20.00;;;;;;;10.21;100.00;99907.03;4207221;28;20237;-69
2023/10/23 05:02:06;;;;;;;46.60;21.93;;;;;;;10.19;100.00;99916.31;4217384;28;20239;-68
2023/10/23 05:04:34;;;;;;;48.50;23.70;;;;;;;10.15;100.00;99922.06;4214346;28;20341;-70
2023/10/23 05:07:00;;;;;;;40.77;22.73;;;;;;;10.23;100.00;99921.25;4223887;28;20472;-68
2023/10/23 05:09:27;;;;;;;42.47;22.00;;;;;;;10.21;100.00;99927.84;4207178;28;20226;-66
2023/10/23 05:11:54;;;;;;;43.23;21.63;;;;;;;10.19;100.00;99922.59;4217704;28;20227;-69
2023/10/23 05:14:20;;;;;;;45.20;22.40;;;;;;;10.15;100.00;99919.38;4212029;28;20234;-68
2023/10/23 05:16:47;;;;;;;42.90;21.57;;;;;;;10.15;100.00;99932.88;4215257;28;20224;-69
2023/10/23 05:19:14;;;;;;;42.23;21.83;;;;;;;10.22;100.00;99935.78;4200937;28;25519;-70
2023/10/23 05:21:40;;;;;;;43.73;21.03;;;;;;;10.23;100.00;99937.50;4206870;28;20263;-69
2023/10/23 05:24:08;;;;;;;44.40;20.70;;;;;;;10.31;100.00;99950.22;4216159;28;20728;-69
2023/10/23 05:26:34;;;;;;;44.60;21.63;;;;;;;10.25;100.00;99950.84;4201186;28;20300;-69
2023/10/23 05:29:01;;;;;;;44.97;21.27;;;;;;;10.23;100.00;99959.13;4218991;28;23948;-71
2023/10/23 05:31:27;;;;;;;48.67;22.57;;;;;;;10.19;100.00;99960.47;4224882;28;20312;-67
2023/10/23 05:33:54;;;;;;;55.03;23.43;;;;;;;10.18;100.00;99966.00;4216932;28;20270;-69
2023/10/23 05:36:21;;;;;;;53.93;24.60;;;;;;;10.14;100.00;99976.28;4217548;28;20243;-73
2023/10/23 05:38:47;;;;;;;55.47;24.47;;;;;;;10.18;100.00;99969.59;4225222;28;20251;-73
2023/10/23 05:41:14;;;;;;;51.60;23.20;;;;;;;10.18;100.00;99979.53;4219819;28;20470;-71
2023/10/23 05:43:41;;;;;;;54.07;25.00;;;;;;;10.15;100.00;99984.28;4219114;28;20247;-73
2023/10/23 05:46:07;;;;;;;59.10;24.77;;;;;;;10.19;100.00;99982.09;4230799;28;21082;-73
2023/10/23 05:48:36;;;;;;;57.90;26.83;;;;;;;10.17;100.00;99989.53;4227060;28;21745;-71
2023/10/23 05:51:05;;;;;;;59.87;26.90;;;;;;;10.22;100.00;99980.94;4217209;28;21490;-72
2023/10/23 05:53:32;;;;;;;58.67;27.87;;;;;;;10.18;100.00;99991.22;4218166;28;20588;-74
2023/10/23 05:56:02;;;;;;;77.33;28.70;;;;;;;10.22;100.00;99999.88;4233565;28;23243;-76
2023/10/23 05:58:30;;;;;;;58.43;28.20;;;;;;;10.30;100.00;100003.50;4216156;28;20242;-73
2023/10/23 06:00:57;;;;;;;60.73;26.60;;;;;;;10.30;100.00;100011.59;4214880;28;20247;-73
2023/10/23 06:03:23;;;;;;;63.73;29.57;;;;;;;10.39;100.00;100019.81;4219434;28;20297;-73
2023/10/23 06:05:52;;;;;;;58.50;29.03;;;;;;;10.36;100.00;100018.25;4223495;28;20568;-72
2023/10/23 06:08:18;;;;;;;61.53;28.47;;;;;;;10.35;100.00;100021.97;4216228;28;21760;-74
2023/10/23 06:10:45;;;;;;;61.47;28.57;;;;;;;10.41;100.00;100028.66;4227252;28;20588;-74
2023/10/23 06:13:12;;;;;;;60.00;27.23;;;;;;;10.44;100.00;100025.59;4224726;28;20231;-75
2023/10/23 06:15:39;;;;;;;54.97;26.93;;;;;;;10.46;100.00;100045.25;4221604;28;20235;-71
2023/10/23 06:18:06;;;;;;;60.00;27.07;;;;;;;10.39;100.00;100034.19;4231682;28;20241;-75
2023/10/23 06:20:34;;;;;;;57.27;27.57;;;;;;;10.52;100.00;100043.78;4223058;28;20235;-75
2023/10/23 06:23:01;;;;;;;59.90;28.30;;;;;;;10.52;100.00;100050.03;4218789;28;20310;-73
2023/10/23 06:25:29;;;;;;;55.30;25.13;;;;;;;10.61;100.00;100040.13;4211615;28;20238;-72
2023/10/23 06:27:56;;;;;;;57.83;26.43;;;;;;;10.60;100.00;100051.97;4232367;28;21951;-73
2023/10/23 06:30:23;;;;;;;59.67;27.33;;;;;;;10.56;100.00;100045.16;4229672;28;20236;-74
2023/10/23 06:32:50;;;;;;;57.93;27.33;;;;;;;10.65;100.00;100040.69;4235426;28;20248;-73
2023/10/23 06:35:18;;;;;;;62.40;26.67;;;;;;;10.73;100.00;100046.13;4226577;28;20276;-72
2023/10/23 06:37:44;;;;;;;55.40;26.60;;;;;;;10.67;100.00;100055.75;4215367;28;20231;-74
2023/10/23 06:40:11;;;;;;;58.23;27.87;;;;;;;10.65;100.00;100052.34;4215250;28;20234;-74
2023/10/23 06:42:38;;;;;;;59.80;28.83;;;;;;;10.68;100.00;100046.63;4225852;28;21224;-73
2023/10/23 06:45:05;;;;;;;56.77;28.60;;;;;;;10.68;100.00;100054.75;4216486;28;22465;-73
2023/10/23 06:47:32;;;;;;;57.93;28.43;;;;;;;10.76;100.00;100057.47;4221199;28;21518;-72
2023/10/23 06:50:01;;;;;;;62.50;28.90;;;;;;;10.80;100.00;100060.72;4211021;28;20236;-73
2023/10/23 06:52:28;;;;;;;57.57;27.67;;;;;;;10.75;100.00;100049.53;4223113;28;20296;-72
2023/10/23 06:54:54;;;;;;;62.27;29.63;;;;;;;10.67;100.00;100061.16;4216191;28;20235;-75
2023/10/23 06:57:21;;;;;;;58.60;30.70;;;;;;;10.64;100.00;100068.75;4218559;28;20321;-71
2023/10/23 06:59:48;;;;;;;67.07;30.73;;;;;;;10.71;100.00;100067.94;4206294;28;20245;-72
2023/10/23 07:02:15;;;;;;;60.63;29.53;;;;;;;10.70;100.00;100078.94;4222848;28;20272;-72
2023/10/23 07:04:42;;;;;;;57.70;29.77;;;;;;;10.70;100.00;100076.22;4222125;28;21827;-74
2023/10/23 07:07:08;;;;;;;56.97;29.57;;;;;;;10.74;100.00;100081.19;4224278;28;20336;-72
2023/10/23 07:09:58;;;;;;;57.67;28.70;;;;;;;10.74;100.00;100072.19;4232185;28;20235;-73
2023/10/23 07:12:25;;;;;;;53.33;27.73;;;;;;;10.70;100.00;100082.47;4218345;28;20440;-73
2023/10/23 07:14:52;;;;;;;55.90;28.87;;;;;;;10.78;100.00;100084.44;4220548;28;20250;-75
2023/10/23 07:17:19;;;;;;;59.80;29.03;;;;;;;10.80;100.00;100085.09;4231752;28;22921;-70
2023/10/23 07:19:46;;;;;;;55.30;27.47;;;;;;;10.83;100.00;100081.25;4213198;28;20659;-72
2023/10/23 07:22:12;;;;;;;54.53;27.27;;;;;;;11.00;100.00;100084.91;4223450;28;20943;-71
2023/10/23 07:24:39;;;;;;;52.70;26.33;;;;;;;11.00;100.00;100087.63;4235637;28;21731;-71
2023/10/23 07:27:11;;;;;;;54.73;26.67;;;;;;;11.00;100.00;100091.16;4224074;28;20340;-72
2023/10/23 07:29:38;;;;;;;50.10;26.33;;;;;;;10.99;100.00;100088.63;4232277;28;21347;-72
2023/10/23 07:32:05;;;;;;;54.67;26.37;;;;;;;10.95;100.00;100098.94;4223731;28;23508;-73
2023/10/23 07:34:31;;;;;;;52.63;26.57;;;;;;;10.91;100.00;100092.97;4220392;28;20275;-72
2023/10/23 07:36:59;;;;;;;52.33;26.13;;;;;;;10.92;100.00;100096.53;4217664;28;20237;-72
2023/10/23 07:39:26;;;;;;;53.80;26.90;;;;;;;10.91;100.00;100103.81;4222589;28;20388;-72
2023/10/23 07:41:52;;;;;;;55.07;28.67;;;;;;;10.96;100.00;100102.47;4236652;28;21122;-73
2023/10/23 07:44:20;;;;;;;57.37;27.07;;;;;;;11.04;100.00;100092.56;4211073;28;20251;-72
2023/10/23 07:46:47;;;;;;;55.10;28.23;;;;;;;10.99;100.00;100105.72;4211892;28;21781;-72
2023/10/23 07:49:14;;;;;;;55.00;26.47;;;;;;;11.06;100.00;100108.66;4231992;28;20241;-72
2023/10/23 07:51:41;;;;;;;46.27;24.60;;;;;;;11.15;100.00;100109.53;4228231;28;20482;-70
2023/10/23 07:54:08;;;;;;;48.50;24.63;;;;;;;11.09;100.00;100111.06;4222195;28;20252;-72
2023/10/23 07:56:35;;;;;;;48.27;25.67;;;;;;;11.06;100.00;100106.81;4220055;28;20940;-70
2023/10/23 07:59:01;;;;;;;48.33;24.03;;;;;;;11.06;100.00;100106.81;4203266;28;21126;-72
2023/10/23 08:01:28;;;;;;;50.37;24.80;;;;;;;11.03;100.00;100114.38;4218378;28;20698;-72
2023/10/23 08:03:55;;;;;;;55.93;25.77;;;;;;;11.06;100.00;100125.78;4217094;28;25174;-72
2023/10/23 08:06:22;;;;;;;49.50;25.87;;;;;;;11.20;100.00;100120.78;4238827;28;20306;-68
2023/10/23 08:08:49;;;;;;;49.03;25.17;;;;;;;11.20;100.00;100118.91;4203849;28;20315;-73
2023/10/23 08:11:16;;;;;;;59.67;27.43;;;;;;;11.20;100.00;100118.06;4221417;28;21097;-70
2023/10/23 08:13:43;;;;;;;46.17;25.07;;;;;;;11.19;100.00;100114.50;4226722;28;20289;-73
2023/10/23 08:16:10;;;;;;;51.30;24.90;;;;;;;11.17;100.00;100115.66;4227008;28;20236;-72
2023/10/23 08:18:37;;;;;;;51.67;25.53;;;;;;;11.41;100.00;100121.25;4230910;28;20464;-72
2023/10/23 08:21:15;;;;;;;46.80;23.90;;;;;;;11.42;100.00;100113.94;4229048;28;21566;-75
2023/10/23 08:23:44;;;;;;;46.53;24.03;;;;;;;11.49;100.00;100125.84;4212298;28;20316;-76
2023/10/23 08:26:11;;;;;;;56.07;25.70;;;;;;;11.20;100.00;100113.47;4221504;28;20234;-75
2023/10/23 08:28:39;;;;;;;47.57;23.50;;;;;;;11.29;100.00;100125.22;4234409;28;20530;-73
2023/10/23 08:31:08;;;;;;;47.40;24.30;;;;;;;11.32;100.00;100121.34;4223398;28;22271;-73
2023/10/23 08:33:56;;;;;;;47.17;22.80;;;;;;;11.36;100.00;100118.16;4238058;28;21793;-74
2023/10/23 08:36:23;;;;;;;43.63;22.40;;;;;;;11.40;100.00;100110.56;4228937;28;20227;-73
2023/10/23 08:38:49;;;;;;;46.50;21.67;;;;;;;11.72;100.00;100115.28;4231205;28;20259;-74
2023/10/23 08:41:16;;;;;;;45.23;22.50;;;;;;;11.49;100.00;100114.16;4225948;28;22458;-72
2023/10/23 08:43:43;;;;;;;50.40;24.87;;;;;;;11.44;100.00;100119.22;4221003;28;22273;-70
2023/10/23 08:46:10;;;;;;;49.33;24.63;;;;;;;11.58;100.00;100115.91;4224841;28;20229;-73
2023/10/23 08:48:37;;;;;;;48.17;23.20;;;;;;;11.52;100.00;100119.25;4236096;28;20311;-67
2023/10/23 08:51:07;;;;;;;49.73;22.60;;;;;;;11.54;100.00;100120.81;4238375;28;20429;-71
2023/10/23 08:53:43;;;;;;;45.63;24.20;;;;;;;11.55;100.00;100122.50;4225707;28;20236;-73
2023/10/23 08:56:14;;;;;;;48.43;23.87;;;;;;;11.63;100.00;100132.53;4209238;28;21777;-71
2023/10/23 08:58:46;;;;;;;87.90;42.20;;;;;;;11.65;100.00;100129.66;4230676;28;20889;-71
2023/10/23 09:01:14;;;;;;;66.80;33.90;;;;;;;11.81;100.00;100124.31;4229484;28;20719;-76
2023/10/23 09:03:40;;;;;;;52.47;26.03;;;;;;;11.82;100.00;100134.16;4239859;28;22483;-72
2023/10/23 09:06:27;;;;;;;42.10;21.80;;;;;;;11.78;100.00;100127.34;4223721;28;20272;-74
2023/10/23 09:08:54;;;;;;;54.40;28.30;;;;;;;11.92;100.00;100131.28;4241940;28;20235;-72
2023/10/23 09:11:27;;;;;;;37.87;20.40;;;;;;;12.12;98.89;100128.34;4226205;28;21488;-74
2023/10/23 09:13:54;;;;;;;40.17;20.17;;;;;;;12.13;98.55;100124.59;4238149;28;20243;-74
2023/10/23 09:16:22;;;;;;;41.23;21.10;;;;;;;12.17;98.49;100128.69;4230783;28;20246;-73
2023/10/23 09:18:49;;;;;;;37.93;21.03;;;;;;;12.13;98.79;100136.31;4223457;28;20401;-74
2023/10/23 09:21:16;;;;;;;45.03;21.80;;;;;;;12.02;99.50;100129.34;4213642;28;21179;-74
2023/10/23 09:23:50;;;;;;;38.73;21.00;;;;;;;12.28;96.82;100133.81;4233086;28;20935;-71
2023/10/23 09:26:18;;;;;;;31.93;18.97;;;;;;;12.31;97.79;100140.78;4239685;28;20297;-71
2023/10/23 09:28:46;;;;;;;57.37;29.10;;;;;;;12.30;97.16;100137.22;4214544;28;20246;-73
2023/10/23 09:31:13;;;;;;;55.83;25.53;;;;;;;12.12;98.10;100137.34;4221612;28;22636;-72
2023/10/23 09:33:40;;;;;;;45.33;23.97;;;;;;;12.31;98.17;100146.22;4231337;28;23564;-71
2023/10/23 09:36:10;;;;;;;36.23;20.80;;;;;;;12.41;98.42;100146.91;4230872;28;20640;-72
2023/10/23 09:38:39;;;;;;;41.43;21.23;;;;;;;12.32;98.30;100147.88;4224764;28;20231;-73
2023/10/23 09:41:10;;;;;;;49.87;27.47;;;;;;;12.36;99.33;100144.69;4225177;28;20306;-75
2023/10/23 09:43:45;;;;;;;64.40;35.50;;;;;;;12.45;98.49;100148.28;4221901;28;20335;-75
2023/10/23 09:46:12;;;;;;;44.50;23.03;;;;;;;12.44;98.03;100146.56;4232397;28;20934;-70
2023/10/23 09:48:40;;;;;;;38.97;20.67;;;;;;;12.30;97.96;100147.22;4216398;28;22217;-72
2023/10/23 09:51:15;;;;;;;31.93;18.50;;;;;;;12.51;97.13;100144.03;4220419;28;20368;-71
2023/10/23 09:53:48;;;;;;;33.20;19.37;;;;;;;12.37;96.34;100145.53;4249901;28;25022;-72
2023/10/23 09:56:21;;;;;;;36.20;19.10;;;;;;;12.35;97.44;100144.84;4237341;28;20305;-70
2023/10/23 09:58:57;;;;;;;33.13;18.87;;;;;;;12.40;97.77;100141.66;4229927;28;25434;-71
2023/10/23 10:01:34;;;;;;;27.50;17.67;;;;;;;12.51;96.83;100142.19;4231560;28;23640;-72
2023/10/23 10:04:13;;;;;;;26.00;16.03;;;;;;;12.41;95.88;100140.63;4226621;28;20343;-73
2023/10/23 10:06:48;;;;;;;29.97;16.40;;;;;;;12.35;95.79;100131.28;4212259;28;21835;-73
2023/10/23 10:09:15;;;;;;;24.83;16.10;;;;;;;12.41;95.04;100138.75;4224420;28;20401;-76
2023/10/23 10:11:43;;;;;;;31.23;17.83;;;;;;;12.43;96.04;100135.88;4234075;28;20351;-73
2023/10/23 10:14:12;;;;;;;28.13;17.07;;;;;;;12.35;96.17;100139.44;4251900;28;20246;-71
2023/10/23 10:16:39;;;;;;;29.27;18.30;;;;;;;12.45;96.12;100137.41;4235022;28;20494;-69
2023/10/23 10:19:07;;;;;;;35.97;18.97;;;;;;;12.31;96.24;100138.91;4235870;28;25687;-72
2023/10/23 10:21:49;;;;;;;33.83;18.73;;;;;;;12.28;97.47;100139.22;4235969;28;20236;-73
2023/10/23 10:24:18;;;;;;;29.77;19.17;;;;;;;12.21;97.27;100135.47;4229189;28;21125;-73
2023/10/23 10:26:45;;;;;;;33.33;19.20;;;;;;;12.21;97.71;100143.63;4220270;28;20239;-73
2023/10/23 10:29:12;;;;;;;33.80;19.13;;;;;;;12.43;96.62;100144.88;4224147;28;20242;-72
2023/10/23 10:32:01;;;;;;;26.37;18.37;;;;;;;12.32;97.16;100147.88;4210067;28;20228;-73
2023/10/23 10:34:28;;;;;;;29.23;18.67;;;;;;;12.18;97.59;100131.25;4217647;28;20235;-73
2023/10/23 10:36:56;;;;;;;28.77;17.93;;;;;;;12.33;97.54;100136.03;4223061;28;20223;-70
2023/10/23 10:40:06;;;;;;;30.30;18.40;;;;;;;12.29;98.26;100131.97;4217006;28;20240;-67
2023/10/23 10:42:35;;;;;;;27.77;18.90;;;;;;;12.22;97.83;100134.47;4217445;28;20533;-70
2023/10/23 10:45:10;;;;;;;33.67;19.17;;;;;;;12.27;97.35;100131.25;4229607;28;21761;-72
2023/10/23 10:47:43;;;;;;;30.47;16.63;;;;;;;12.65;95.03;100137.94;4226475;28;20977;-71
2023/10/23 10:50:10;;;;;;;26.13;17.07;;;;;;;12.58;95.41;100130.63;4224307;28;20245;-69
2023/10/23 10:52:39;;;;;;;26.00;17.63;;;;;;;12.32;96.83;100137.91;4220935;28;20242;-70
2023/10/23 10:55:10;;;;;;;30.57;17.60;;;;;;;12.37;97.43;100134.69;4231026;28;20236;-72
2023/10/23 10:57:43;;;;;;;25.60;16.90;;;;;;;12.30;96.86;100130.94;4207053;28;20229;-75
2023/10/23 11:00:11;;;;;;;34.93;17.63;;;;;;;12.35;96.55;100128.56;4236951;28;20321;-73
2023/10/23 11:02:39;;;;;;;27.07;17.67;;;;;;;12.57;95.93;100126.22;4253665;28;20388;-71
2023/10/23 11:05:11;;;;;;;24.57;17.13;;;;;;;12.64;94.68;100129.97;4225567;28;20487;-70
2023/10/23 11:07:39;;;;;;;24.20;16.37;;;;;;;12.55;95.51;100136.38;4240691;28;21829;-71
2023/10/23 11:10:06;;;;;;;25.20;16.97;;;;;;;12.45;95.51;100125.69;4253274;28;21132;-71